sensor_id;sensor_type;location;lat;lon;timestamp;pressure;altitude;pressure_sealevel;temperature;humidity
75036;BME280;64247;51.540;5.854;2023-03-14T00:01:23;98670.28;;;10.68;97.00
75036;BME280;64247;51.540;5.854;2023-03-14T00:03:24;98662.13;;;10.68;96.42
75036;BME280;64247;51.540;5.854;2023-03-14T00:05:25;98641.97;;;10.69;96.53
75036;BME280;64247;51.540;5.854;2023-03-14T00:07:26;98674.50;;;10.76;96.63
75036;BME280;64247;51.540;5.854;2023-03-14T00:09:28;98670.63;;;10.77;96.54
75036;BME280;64247;51.540;5.854;2023-03-14T00:11:30;98672.56;;;10.80;96.64
75036;BME280;64247;51.540;5.854;2023-03-14T00:13:31;98669.06;;;10.80;96.86
75036;BME280;64247;51.540;5.854;2023-03-14T00:15:33;98663.25;;;10.77;96.46
75036;BME280;64247;51.540;5.854;2023-03-14T00:17:35;98657.44;;;10.79;95.71
75036;BME280;64247;51.540;5.854;2023-03-14T00:19:36;98662.09;;;10.79;95.67
75036;BME280;64247;51.540;5.854;2023-03-14T00:21:37;98662.88;;;10.79;95.78
75036;BME280;64247;51.540;5.854;2023-03-14T00:23:39;98669.84;;;10.80;94.37
75036;BME280;64247;51.540;5.854;2023-03-14T00:25:41;98658.59;;;10.82;94.60
75036;BME280;64247;51.540;5.854;2023-03-14T00:27:42;98667.50;;;10.82;93.73
75036;BME280;64247;51.540;5.854;2023-03-14T00:29:43;98658.59;;;10.82;93.10
75036;BME280;64247;51.540;5.854;2023-03-14T00:31:44;98665.19;;;10.81;92.80
75036;BME280;64247;51.540;5.854;2023-03-14T00:33:45;98671.38;;;10.81;92.32
75036;BME280;64247;51.540;5.854;2023-03-14T00:35:57;98656.28;;;10.80;92.54
75036;BME280;64247;51.540;5.854;2023-03-14T00:38:03;98666.34;;;10.83;91.77
75036;BME280;64247;51.540;5.854;2023-03-14T00:40:04;98672.16;;;10.82;91.33
75036;BME280;64247;51.540;5.854;2023-03-14T00:42:07;98673.72;;;10.79;90.72
75036;BME280;64247;51.540;5.854;2023-03-14T00:44:08;98671.34;;;10.85;90.37
75036;BME280;64247;51.540;5.854;2023-03-14T00:46:09;98679.50;;;10.85;90.31
75036;BME280;64247;51.540;5.854;2023-03-14T00:48:10;98671.34;;;10.85;89.46
75036;BME280;64247;51.540;5.854;2023-03-14T00:50:11;98674.91;;;10.78;88.29
75036;BME280;64247;51.540;5.854;2023-03-14T00:52:12;98684.59;;;10.75;86.80
75036;BME280;64247;51.540;5.854;2023-03-14T00:54:13;98698.19;;;10.72;86.93
75036;BME280;64247;51.540;5.854;2023-03-14T00:56:14;98698.97;;;10.69;86.80
75036;BME280;64247;51.540;5.854;2023-03-14T00:58:17;98702.06;;;10.71;86.55
75036;BME280;64247;51.540;5.854;2023-03-14T01:00:18;98700.50;;;10.70;86.33
75036;BME280;64247;51.540;5.854;2023-03-14T01:02:19;98712.53;;;10.69;87.15
75036;BME280;64247;51.540;5.854;2023-03-14T01:04:20;98714.53;;;10.57;87.05
75036;BME280;64247;51.540;5.854;2023-03-14T01:06:24;98709.88;;;10.51;86.70
75036;BME280;64247;51.540;5.854;2023-03-14T01:08:26;98702.13;;;10.53;86.66
75036;BME280;64247;51.540;5.854;2023-03-14T01:10:28;98694.75;;;10.53;86.68
75036;BME280;64247;51.540;5.854;2023-03-14T01:12:30;98712.19;;;10.52;87.01
75036;BME280;64247;51.540;5.854;2023-03-14T01:14:31;98709.88;;;10.51;86.45
75036;BME280;64247;51.540;5.854;2023-03-14T01:16:35;98691.31;;;10.45;86.79
75036;BME280;64247;51.540;5.854;2023-03-14T01:18:38;98695.53;;;10.47;86.78
75036;BME280;64247;51.540;5.854;2023-03-14T01:20:40;98690.94;;;10.40;86.99
75036;BME280;64247;51.540;5.854;2023-03-14T01:22:41;98698.66;;;10.41;86.87
75036;BME280;64247;51.540;5.854;2023-03-14T01:24:42;98682.81;;;10.40;86.80
75036;BME280;64247;51.540;5.854;2023-03-14T01:26:43;98693.25;;;10.34;86.88
75036;BME280;64247;51.540;5.854;2023-03-14T01:28:45;98685.50;;;10.29;86.89
75036;BME280;64247;51.540;5.854;2023-03-14T01:30:47;98687.44;;;10.28;87.26
75036;BME280;64247;51.540;5.854;2023-03-14T01:32:48;98680.88;;;10.22;86.73
75036;BME280;64247;51.540;5.854;2023-03-14T01:34:49;98673.13;;;10.24;86.67
75036;BME280;64247;51.540;5.854;2023-03-14T01:36:50;98681.66;;;10.26;86.05
75036;BME280;64247;51.540;5.854;2023-03-14T01:38:52;98661.88;;;10.26;85.91
75036;BME280;64247;51.540;5.854;2023-03-14T01:40:52;98666.50;;;10.36;85.29
75036;BME280;64247;51.540;5.854;2023-03-14T01:43:00;98664.56;;;10.33;84.92
75036;BME280;64247;51.540;5.854;2023-03-14T01:47:45;98656.06;;;10.24;85.04
75036;BME280;64247;51.540;5.854;2023-03-14T01:50:01;98651.81;;;10.19;84.96
75036;BME280;64247;51.540;5.854;2023-03-14T01:52:36;98654.91;;;10.21;85.01
75036;BME280;64247;51.540;5.854;2023-03-14T01:54:50;98654.16;;;10.17;84.97
75036;BME280;64247;51.540;5.854;2023-03-14T01:57:05;98652.22;;;10.14;85.10
75036;BME280;64247;51.540;5.854;2023-03-14T01:59:11;98644.09;;;10.14;86.13
75036;BME280;64247;51.540;5.854;2023-03-14T02:01:15;98651.09;;;10.11;86.41
75036;BME280;64247;51.540;5.854;2023-03-14T02:03:21;98641.78;;;10.09;86.67
75036;BME280;64247;51.540;5.854;2023-03-14T02:05:28;98640.25;;;10.04;86.60
75036;BME280;64247;51.540;5.854;2023-03-14T02:07:53;98646.44;;;10.05;86.54
75036;BME280;64247;51.540;5.854;2023-03-14T02:10:01;98647.63;;;10.04;86.61
75036;BME280;64247;51.540;5.854;2023-03-14T02:12:08;98642.97;;;10.04;86.74
75036;BME280;64247;51.540;5.854;2023-03-14T02:14:33;98644.13;;;10.00;87.44
75036;BME280;64247;51.540;5.854;2023-03-14T02:16:54;98631.34;;;9.96;87.83
75036;BME280;64247;51.540;5.854;2023-03-14T02:19:18;98632.16;;;9.93;88.39
75036;BME280;64247;51.540;5.854;2023-03-14T02:22:05;98628.28;;;9.91;89.65
75036;BME280;64247;51.540;5.854;2023-03-14T02:27:20;98642.22;;;9.86;91.04
75036;BME280;64247;51.540;5.854;2023-03-14T02:29:22;98641.88;;;9.80;91.87
75036;BME280;64247;51.540;5.854;2023-03-14T02:31:23;98636.81;;;9.68;93.06
75036;BME280;64247;51.540;5.854;2023-03-14T02:33:24;98645.75;;;9.54;95.85
75036;BME280;64247;51.540;5.854;2023-03-14T02:35:36;98647.69;;;9.24;98.51
75036;BME280;64247;51.540;5.854;2023-03-14T02:38:19;98648.00;;;8.97;100.00
75036;BME280;64247;51.540;5.854;2023-03-14T02:40:40;98645.28;;;8.86;100.00
75036;BME280;64247;51.540;5.854;2023-03-14T02:42:41;98646.44;;;8.82;100.00
75036;BME280;64247;51.540;5.854;2023-03-14T02:44:54;98642.56;;;8.76;100.00
75036;BME280;64247;51.540;5.854;2023-03-14T02:47:20;98636.38;;;8.71;100.00
75036;BME280;64247;51.540;5.854;2023-03-14T02:49:28;98630.97;;;8.71;100.00
75036;BME280;64247;51.540;5.854;2023-03-14T02:51:35;98624.41;;;8.73;100.00
75036;BME280;64247;51.540;5.854;2023-03-14T02:53:36;98621.69;;;8.73;100.00
75036;BME280;64247;51.540;5.854;2023-03-14T02:55:49;98618.97;;;8.69;100.00
75036;BME280;64247;51.540;5.854;2023-03-14T02:57:53;98620.13;;;8.64;100.00
75036;BME280;64247;51.540;5.854;2023-03-14T02:59:53;98624.38;;;8.65;100.00
75036;BME280;64247;51.540;5.854;2023-03-14T03:01:55;98617.03;;;8.69;100.00
75036;BME280;64247;51.540;5.854;2023-03-14T03:03:55;98614.75;;;8.75;100.00
75036;BME280;64247;51.540;5.854;2023-03-14T03:05:57;98615.91;;;8.81;100.00
75036;BME280;64247;51.540;5.854;2023-03-14T03:07:58;98617.06;;;8.87;100.00
75036;BME280;64247;51.540;5.854;2023-03-14T03:09:59;98619.41;;;8.93;100.00
75036;BME280;64247;51.540;5.854;2023-03-14T03:12:00;98624.44;;;8.98;100.00
75036;BME280;64247;51.540;5.854;2023-03-14T03:14:03;98639.53;;;9.02;100.00
75036;BME280;64247;51.540;5.854;2023-03-14T03:16:04;98633.34;;;9.09;100.00
75036;BME280;64247;51.540;5.854;2023-03-14T03:18:06;98626.41;;;9.15;100.00
75036;BME280;64247;51.540;5.854;2023-03-14T03:20:08;98620.59;;;9.21;100.00
75036;BME280;64247;51.540;5.854;2023-03-14T03:22:10;98621.75;;;9.23;100.00
75036;BME280;64247;51.540;5.854;2023-03-14T03:24:14;98617.09;;;9.24;100.00
75036;BME280;64247;51.540;5.854;2023-03-14T03:26:15;98624.88;;;9.25;100.00
75036;BME280;64247;51.540;5.854;2023-03-14T03:28:17;98626.03;;;9.28;100.00
75036;BME280;64247;51.540;5.854;2023-03-14T03:30:19;98618.66;;;9.28;100.00
75036;BME280;64247;51.540;5.854;2023-03-14T03:32:21;98626.78;;;9.28;100.00
75036;BME280;64247;51.540;5.854;2023-03-14T03:34:22;98628.72;;;9.28;100.00
75036;BME280;64247;51.540;5.854;2023-03-14T03:36:27;98621.38;;;9.28;100.00
75036;BME280;64247;51.540;5.854;2023-03-14T03:38:28;98623.72;;;9.30;100.00
75036;BME280;64247;51.540;5.854;2023-03-14T03:40:30;98623.31;;;9.31;100.00
75036;BME280;64247;51.540;5.854;2023-03-14T03:42:32;98624.06;;;9.32;100.00
75036;BME280;64247;51.540;5.854;2023-03-14T03:44:34;98610.94;;;9.30;100.00
75036;BME280;64247;51.540;5.854;2023-03-14T03:46:35;98624.47;;;9.30;99.93
75036;BME280;64247;51.540;5.854;2023-03-14T03:48:36;98606.31;;;9.31;99.76
75036;BME280;64247;51.540;5.854;2023-03-14T03:50:46;98612.47;;;9.31;99.50
75036;BME280;64247;51.540;5.854;2023-03-14T03:52:51;98598.94;;;9.31;99.54
75036;BME280;64247;51.540;5.854;2023-03-14T03:54:52;98614.03;;;9.32;99.68
75036;BME280;64247;51.540;5.854;2023-03-14T03:56:52;98605.13;;;9.32;99.29
75036;BME280;64247;51.540;5.854;2023-03-14T03:58:53;98596.25;;;9.31;98.73
75036;BME280;64247;51.540;5.854;2023-03-14T04:00:54;98612.47;;;9.31;99.33
75036;BME280;64247;51.540;5.854;2023-03-14T04:02:55;98603.19;;;9.29;99.21
75036;BME280;64247;51.540;5.854;2023-03-14T04:04:56;98598.56;;;9.26;98.98
75036;BME280;64247;51.540;5.854;2023-03-14T04:06:57;98598.94;;;9.24;98.68
75036;BME280;64247;51.540;5.854;2023-03-14T04:08:58;98603.56;;;9.20;99.22
75036;BME280;64247;51.540;5.854;2023-03-14T04:11:07;98599.72;;;9.14;99.19
75036;BME280;64247;51.540;5.854;2023-03-14T04:13:40;98601.25;;;9.08;99.71
75036;BME280;64247;51.540;5.854;2023-03-14T04:15:41;98602.00;;;9.01;100.00
75036;BME280;64247;51.540;5.854;2023-03-14T04:17:59;98604.72;;;8.94;100.00
75036;BME280;64247;51.540;5.854;2023-03-14T04:20:00;98613.97;;;8.89;100.00
75036;BME280;64247;51.540;5.854;2023-03-14T04:22:09;98620.56;;;8.88;100.00
75036;BME280;64247;51.540;5.854;2023-03-14T04:24:18;98608.56;;;8.85;100.00
75036;BME280;64247;51.540;5.854;2023-03-14T04:26:22;98601.97;;;8.79;100.00
75036;BME280;64247;51.540;5.854;2023-03-14T04:28:23;98608.19;;;8.76;100.00
75036;BME280;64247;51.540;5.854;2023-03-14T04:30:24;98603.13;;;8.75;100.00
75036;BME280;64247;51.540;5.854;2023-03-14T04:32:51;98601.56;;;8.70;100.00
75036;BME280;64247;51.540;5.854;2023-03-14T04:34:54;98600.81;;;8.66;100.00
75036;BME280;64247;51.540;5.854;2023-03-14T04:36:55;98591.94;;;8.65;100.00
75036;BME280;64247;51.540;5.854;2023-03-14T04:39:03;98584.16;;;8.60;100.00
75036;BME280;64247;51.540;5.854;2023-03-14T04:41:06;98580.69;;;8.56;100.00
75036;BME280;64247;51.540;5.854;2023-03-14T04:43:10;98572.59;;;8.56;100.00
75036;BME280;64247;51.540;5.854;2023-03-14T04:45:15;98575.28;;;8.52;100.00
75036;BME280;64247;51.540;5.854;2023-03-14T04:47:17;98574.50;;;8.52;100.00
75036;BME280;64247;51.540;5.854;2023-03-14T04:49:21;98577.59;;;8.54;100.00
75036;BME280;64247;51.540;5.854;2023-03-14T04:51:22;98581.03;;;8.51;100.00
75036;BME280;64247;51.540;5.854;2023-03-14T04:53:23;98577.16;;;8.45;100.00
75036;BME280;64247;51.540;5.854;2023-03-14T04:55:28;98588.34;;;8.39;100.00
75036;BME280;64247;51.540;5.854;2023-03-14T04:57:30;98568.25;;;8.37;100.00
75036;BME280;64247;51.540;5.854;2023-03-14T04:59:31;98579.06;;;8.37;100.00
75036;BME280;64247;51.540;5.854;2023-03-14T05:01:40;98591.03;;;8.36;100.00
75036;BME280;64247;51.540;5.854;2023-03-14T05:03:59;98577.13;;;8.37;100.00
75036;BME280;64247;51.540;5.854;2023-03-14T05:06:21;98585.22;;;8.37;100.00
75036;BME280;64247;51.540;5.854;2023-03-14T05:08:45;98568.63;;;8.35;100.00
75036;BME280;64247;51.540;5.854;2023-03-14T05:11:12;98587.16;;;8.33;100.00
75036;BME280;64247;51.540;5.854;2023-03-14T05:13:31;98572.47;;;8.23;100.00
75036;BME280;64247;51.540;5.854;2023-03-14T05:16:09;98575.88;;;8.13;100.00
75036;BME280;64247;51.540;5.854;2023-03-14T05:18:37;98575.47;;;8.07;100.00
75036;BME280;64247;51.540;5.854;2023-03-14T05:20:50;98572.00;;;8.03;100.00
75036;BME280;64247;51.540;5.854;2023-03-14T05:23:01;98567.34;;;8.00;100.00
75036;BME280;64247;51.540;5.854;2023-03-14T05:25:23;98558.44;;;7.96;100.00
75036;BME280;64247;51.540;5.854;2023-03-14T05:27:45;98571.56;;;7.94;100.00
75036;BME280;64247;51.540;5.854;2023-03-14T05:30:07;98559.59;;;7.95;100.00
75036;BME280;64247;51.540;5.854;2023-03-14T05:32:35;98568.47;;;7.96;100.00
75036;BME280;64247;51.540;5.854;2023-03-14T05:34:52;98558.44;;;7.96;100.00
75036;BME280;64247;51.540;5.854;2023-03-14T05:37:08;98564.22;;;7.98;100.00
75036;BME280;64247;51.540;5.854;2023-03-14T05:39:16;98561.94;;;8.00;100.00
75036;BME280;64247;51.540;5.854;2023-03-14T05:41:46;98567.34;;;8.04;100.00
75036;BME280;64247;51.540;5.854;2023-03-14T05:44:00;98575.06;;;8.05;100.00
75036;BME280;64247;51.540;5.854;2023-03-14T05:46:19;98565.81;;;8.10;100.00
75036;BME280;64247;51.540;5.854;2023-03-14T05:48:38;98567.38;;;8.11;100.00
75036;BME280;64247;51.540;5.854;2023-03-14T05:50:58;98553.88;;;8.15;100.00
75036;BME280;64247;51.540;5.854;2023-03-14T05:53:18;98568.97;;;8.19;100.00
75036;BME280;64247;51.540;5.854;2023-03-14T05:55:38;98567.06;;;8.23;100.00
75036;BME280;64247;51.540;5.854;2023-03-14T05:57:58;98552.00;;;8.22;100.00
75036;BME280;64247;51.540;5.854;2023-03-14T06:00:24;98560.84;;;8.19;100.00
75036;BME280;64247;51.540;5.854;2023-03-14T06:02:36;98555.44;;;8.19;100.00
75036;BME280;64247;51.540;5.854;2023-03-14T06:04:46;98556.59;;;8.22;100.00
75036;BME280;64247;51.540;5.854;2023-03-14T06:06:47;98550.84;;;8.23;100.00
75036;BME280;64247;51.540;5.854;2023-03-14T06:08:49;98548.50;;;8.26;100.00
75036;BME280;64247;51.540;5.854;2023-03-14T06:10:51;98548.50;;;8.26;100.00
75036;BME280;64247;51.540;5.854;2023-03-14T06:12:53;98556.25;;;8.23;100.00
75036;BME280;64247;51.540;5.854;2023-03-14T06:14:55;98549.31;;;8.26;100.00
75036;BME280;64247;51.540;5.854;2023-03-14T06:16:56;98545.44;;;8.23;100.00
75036;BME280;64247;51.540;5.854;2023-03-14T06:19:00;98555.06;;;8.24;100.00
75036;BME280;64247;51.540;5.854;2023-03-14T06:21:03;98554.31;;;8.24;100.00
75036;BME280;64247;51.540;5.854;2023-03-14T06:23:05;98546.59;;;8.26;100.00
75036;BME280;64247;51.540;5.854;2023-03-14T06:25:08;98547.75;;;8.25;100.00
75036;BME280;64247;51.540;5.854;2023-03-14T06:27:10;98551.22;;;8.26;100.00
75036;BME280;64247;51.540;5.854;2023-03-14T06:29:11;98548.50;;;8.26;100.00
75036;BME280;64247;51.540;5.854;2023-03-14T06:31:14;98555.47;;;8.27;100.00
75036;BME280;64247;51.540;5.854;2023-03-14T06:33:24;98552.75;;;8.27;100.00
75036;BME280;64247;51.540;5.854;2023-03-14T06:35:26;98557.41;;;8.26;100.00
75036;BME280;64247;51.540;5.854;2023-03-14T06:37:28;98560.09;;;8.26;100.00
75036;BME280;64247;51.540;5.854;2023-03-14T06:39:29;98552.75;;;8.27;100.00
75036;BME280;64247;51.540;5.854;2023-03-14T06:41:38;98551.63;;;8.28;100.00
75036;BME280;64247;51.540;5.854;2023-03-14T06:43:39;98555.06;;;8.28;100.00
75036;BME280;64247;51.540;5.854;2023-03-14T06:45:42;98557.44;;;8.33;100.00
75036;BME280;64247;51.540;5.854;2023-03-14T06:47:43;98554.72;;;8.33;100.00
75036;BME280;64247;51.540;5.854;2023-03-14T06:49:44;98550.88;;;8.34;100.00
75036;BME280;64247;51.540;5.854;2023-03-14T06:51:46;98561.69;;;8.38;100.00
75036;BME280;64247;51.540;5.854;2023-03-14T06:53:48;98567.88;;;8.46;100.00
75036;BME280;64247;51.540;5.854;2023-03-14T06:55:50;98559.41;;;8.51;100.00
75036;BME280;64247;51.540;5.854;2023-03-14T06:57:52;98566.38;;;8.59;100.00
75036;BME280;64247;51.540;5.854;2023-03-14T06:59:54;98568.75;;;8.71;100.00
75036;BME280;64247;51.540;5.854;2023-03-14T07:01:55;98557.94;;;8.82;100.00
75036;BME280;64247;51.540;5.854;2023-03-14T07:03:56;98557.16;;;8.89;100.00
75036;BME280;64247;51.540;5.854;2023-03-14T07:05:57;98557.56;;;8.98;100.00
75036;BME280;64247;51.540;5.854;2023-03-14T07:07:58;98560.66;;;9.04;100.00
75036;BME280;64247;51.540;5.854;2023-03-14T07:09:59;98559.09;;;9.14;100.00
75036;BME280;64247;51.540;5.854;2023-03-14T07:12:02;98557.19;;;9.18;100.00
75036;BME280;64247;51.540;5.854;2023-03-14T07:14:05;98565.69;;;9.31;100.00
75036;BME280;64247;51.540;5.854;2023-03-14T07:16:06;98568.78;;;9.29;100.00
75036;BME280;64247;51.540;5.854;2023-03-14T07:18:08;98566.06;;;9.22;100.00
75036;BME280;64247;51.540;5.854;2023-03-14T07:20:11;98571.47;;;9.22;100.00
75036;BME280;64247;51.540;5.854;2023-03-14T07:22:12;98573.78;;;9.20;100.00
75036;BME280;64247;51.540;5.854;2023-03-14T07:24:13;98584.63;;;9.20;100.00
75036;BME280;64247;51.540;5.854;2023-03-14T07:26:14;98586.16;;;9.25;100.00
75036;BME280;64247;51.540;5.854;2023-03-14T07:28:20;98570.72;;;9.25;100.00
75036;BME280;64247;51.540;5.854;2023-03-14T07:30:25;98586.16;;;9.28;100.00
75036;BME280;64247;51.540;5.854;2023-03-14T07:32:27;98592.75;;;9.27;100.00
75036;BME280;64247;51.540;5.854;2023-03-14T07:34:28;98591.59;;;9.28;100.00
75036;BME280;64247;51.540;5.854;2023-03-14T07:36:30;98593.13;;;9.26;100.00
75036;BME280;64247;51.540;5.854;2023-03-14T07:38:31;98586.56;;;9.19;100.00
75036;BME280;64247;51.540;5.854;2023-03-14T07:40:50;98602.41;;;9.21;100.00
75036;BME280;64247;51.540;5.854;2023-03-14T07:42:51;98583.09;;;9.19;100.00
75036;BME280;64247;51.540;5.854;2023-03-14T07:45:11;98607.06;;;9.13;100.00
75036;BME280;64247;51.540;5.854;2023-03-14T07:47:11;98593.94;;;9.12;100.00
75036;BME280;64247;51.540;5.854;2023-03-14T07:49:12;98610.53;;;9.10;100.00
75036;BME280;64247;51.540;5.854;2023-03-14T07:51:13;98605.13;;;9.10;100.00
75036;BME280;64247;51.540;5.854;2023-03-14T07:53:14;98592.75;;;9.06;100.00
75036;BME280;64247;51.540;5.854;2023-03-14T07:55:15;98620.94;;;8.97;100.00
75036;BME280;64247;51.540;5.854;2023-03-14T07:57:16;98685.09;;;8.86;100.00
75036;BME280;64247;51.540;5.854;2023-03-14T07:59:18;98692.19;;;8.31;100.00
75036;BME280;64247;51.540;5.854;2023-03-14T08:01:19;98706.97;;;7.85;100.00
75036;BME280;64247;51.540;5.854;2023-03-14T08:03:20;98684.41;;;7.63;100.00
75036;BME280;64247;51.540;5.854;2023-03-14T08:05:21;98724.78;;;7.49;100.00
75036;BME280;64247;51.540;5.854;2023-03-14T08:07:22;98727.00;;;7.39;100.00
75036;BME280;64247;51.540;5.854;2023-03-14T08:09:22;98715.00;;;7.33;100.00
75036;BME280;64247;51.540;5.854;2023-03-14T08:11:23;98739.56;;;7.24;100.00
75036;BME280;64247;51.540;5.854;2023-03-14T08:13:24;98743.38;;;7.16;100.00
75036;BME280;64247;51.540;5.854;2023-03-14T08:15:26;98727.03;;;7.05;100.00
75036;BME280;64247;51.540;5.854;2023-03-14T08:17:30;98751.53;;;6.89;100.00
75036;BME280;64247;51.540;5.854;2023-03-14T08:19:30;98766.06;;;6.81;100.00
75036;BME280;64247;51.540;5.854;2023-03-14T08:21:31;98773.31;;;6.73;100.00
75036;BME280;64247;51.540;5.854;2023-03-14T08:23:32;98766.66;;;6.67;100.00
75036;BME280;64247;51.540;5.854;2023-03-14T08:25:33;98781.59;;;6.61;100.00
75036;BME280;64247;51.540;5.854;2023-03-14T08:27:34;98797.38;;;6.59;100.00
75036;BME280;64247;51.540;5.854;2023-03-14T08:29:37;98796.16;;;6.56;100.00
75036;BME280;64247;51.540;5.854;2023-03-14T08:31:38;98791.19;;;6.58;100.00
75036;BME280;64247;51.540;5.854;2023-03-14T08:33:39;98816.66;;;6.61;100.00
75036;BME280;64247;51.540;5.854;2023-03-14T08:35:41;98818.31;;;6.69;100.00
75036;BME280;64247;51.540;5.854;2023-03-14T08:37:42;98814.16;;;6.75;100.00
75036;BME280;64247;51.540;5.854;2023-03-14T08:39:43;98824.25;;;6.82;100.00
75036;BME280;64247;51.540;5.854;2023-03-14T08:41:44;98836.72;;;6.90;100.00
75036;BME280;64247;51.540;5.854;2023-03-14T08:43:45;98829.84;;;6.96;100.00
75036;BME280;64247;51.540;5.854;2023-03-14T08:45:46;98853.03;;;7.01;100.00
75036;BME280;64247;51.540;5.854;2023-03-14T08:47:47;98865.41;;;7.06;100.00
75036;BME280;64247;51.540;5.854;2023-03-14T08:49:48;98860.50;;;7.11;100.00
75036;BME280;64247;51.540;5.854;2023-03-14T08:51:49;98874.47;;;7.21;100.00
75036;BME280;64247;51.540;5.854;2023-03-14T08:53:50;98883.44;;;7.28;100.00
75036;BME280;64247;51.540;5.854;2023-03-14T08:55:54;98897.44;;;7.38;100.00
75036;BME280;64247;51.540;5.854;2023-03-14T08:57:56;98872.06;;;7.42;100.00
75036;BME280;64247;51.540;5.854;2023-03-14T08:59:57;98899.44;;;7.44;100.00
75036;BME280;64247;51.540;5.854;2023-03-14T09:01:58;98909.94;;;7.50;100.00
75036;BME280;64247;51.540;5.854;2023-03-14T09:03:59;98896.84;;;7.55;100.00
75036;BME280;64247;51.540;5.854;2023-03-14T09:06:08;98899.56;;;7.55;100.00
75036;BME280;64247;51.540;5.854;2023-03-14T09:08:10;98913.44;;;7.54;100.00
75036;BME280;64247;51.540;5.854;2023-03-14T09:10:11;98928.78;;;7.46;100.00
75036;BME280;64247;51.540;5.854;2023-03-14T09:12:12;98914.78;;;7.37;100.00
75036;BME280;64247;51.540;5.854;2023-03-14T09:14:13;98955.84;;;7.23;100.00
75036;BME280;64247;51.540;5.854;2023-03-14T09:16:14;98969.91;;;7.09;100.00
75036;BME280;64247;51.540;5.854;2023-03-14T09:18:15;98945.88;;;7.00;100.00
75036;BME280;64247;51.540;5.854;2023-03-14T09:20:16;98951.88;;;6.90;100.00
75036;BME280;64247;51.540;5.854;2023-03-14T09:22:17;98974.16;;;6.83;100.00
75036;BME280;64247;51.540;5.854;2023-03-14T09:24:18;98962.50;;;6.79;100.00
75036;BME280;64247;51.540;5.854;2023-03-14T09:26:19;98996.44;;;6.80;100.00
75036;BME280;64247;51.540;5.854;2023-03-14T09:28:21;98983.38;;;6.82;100.00
75036;BME280;64247;51.540;5.854;2023-03-14T09:30:22;98998.44;;;6.83;100.00
75036;BME280;64247;51.540;5.854;2023-03-14T09:32:23;98974.91;;;6.84;100.00
75036;BME280;64247;51.540;5.854;2023-03-14T09:34:25;98995.72;;;6.83;100.00
75036;BME280;64247;51.540;5.854;2023-03-14T09:36:26;99037.88;;;6.91;100.00
75036;BME280;64247;51.540;5.854;2023-03-14T09:38:28;99051.03;;;6.96;100.00
75036;BME280;64247;51.540;5.854;2023-03-14T09:40:34;99051.34;;;6.91;100.00
75036;BME280;64247;51.540;5.854;2023-03-14T09:42:37;99084.31;;;6.81;100.00
75036;BME280;64247;51.540;5.854;2023-03-14T09:45:03;99109.81;;;6.64;100.00
75036;BME280;64247;51.540;5.854;2023-03-14T09:47:11;99097.34;;;6.36;100.00
75036;BME280;64247;51.540;5.854;2023-03-14T09:49:25;99121.22;;;6.18;100.00
75036;BME280;64247;51.540;5.854;2023-03-14T09:51:29;99129.44;;;6.06;100.00
75036;BME280;64247;51.540;5.854;2023-03-14T09:53:41;99140.41;;;5.97;100.00
75036;BME280;64247;51.540;5.854;2023-03-14T09:55:47;99139.00;;;5.87;100.00
75036;BME280;64247;51.540;5.854;2023-03-14T09:57:56;99153.97;;;5.84;100.00
75036;BME280;64247;51.540;5.854;2023-03-14T10:00:05;99178.28;;;5.88;100.00
75036;BME280;64247;51.540;5.854;2023-03-14T10:02:21;99172.81;;;6.00;100.00
75036;BME280;64247;51.540;5.854;2023-03-14T10:04:23;99205.38;;;6.11;100.00
75036;BME280;64247;51.540;5.854;2023-03-14T10:06:27;99199.34;;;6.18;100.00
75036;BME280;64247;51.540;5.854;2023-03-14T10:08:31;99209.25;;;6.30;100.00
75036;BME280;64247;51.540;5.854;2023-03-14T10:10:32;99209.69;;;6.52;100.00
75036;BME280;64247;51.540;5.854;2023-03-14T10:12:35;99226.19;;;6.66;100.00
75036;BME280;64247;51.540;5.854;2023-03-14T10:14:49;99239.16;;;6.80;100.00
75036;BME280;64247;51.540;5.854;2023-03-14T10:16:54;99232.22;;;6.99;100.00
75036;BME280;64247;51.540;5.854;2023-03-14T10:19:05;99251.16;;;7.22;100.00
75036;BME280;64247;51.540;5.854;2023-03-14T10:21:29;99272.72;;;7.41;100.00
75036;BME280;64247;51.540;5.854;2023-03-14T10:23:37;99290.75;;;7.57;99.18
75036;BME280;64247;51.540;5.854;2023-03-14T10:25:42;99279.66;;;7.62;97.13
75036;BME280;64247;51.540;5.854;2023-03-14T10:27:44;99295.22;;;7.69;95.82
75036;BME280;64247;51.540;5.854;2023-03-14T10:30:05;99313.75;;;7.70;94.79
75036;BME280;64247;51.540;5.854;2023-03-14T10:32:19;99327.50;;;7.85;92.60
75036;BME280;64247;51.540;5.854;2023-03-14T10:34:25;99330.69;;;7.90;92.95
75036;BME280;64247;51.540;5.854;2023-03-14T10:36:32;99339.94;;;7.89;93.65
75036;BME280;64247;51.540;5.854;2023-03-14T10:38:36;99352.25;;;7.87;93.04
75036;BME280;64247;51.540;5.854;2023-03-14T10:40:39;99346.34;;;7.81;91.35
75036;BME280;64247;51.540;5.854;2023-03-14T10:42:46;99360.56;;;7.78;91.50
75036;BME280;64247;51.540;5.854;2023-03-14T10:44:58;99364.00;;;7.75;91.17
75036;BME280;64247;51.540;5.854;2023-03-14T10:47:06;99387.75;;;7.66;89.10
75036;BME280;64247;51.540;5.854;2023-03-14T10:49:30;99398.41;;;7.58;89.35
75036;BME280;64247;51.540;5.854;2023-03-14T10:51:35;99409.72;;;7.64;89.15
75036;BME280;64247;51.540;5.854;2023-03-14T10:54:04;99410.34;;;7.77;89.78
75036;BME280;64247;51.540;5.854;2023-03-14T10:56:17;99423.00;;;7.92;86.31
75036;BME280;64247;51.540;5.854;2023-03-14T10:58:26;99425.66;;;8.12;87.21
75036;BME280;64247;51.540;5.854;2023-03-14T11:00:29;99436.88;;;8.37;84.84
75036;BME280;64247;51.540;5.854;2023-03-14T11:05:32;99465.19;;;8.63;80.58
75036;BME280;64247;51.540;5.854;2023-03-14T11:07:42;99460.31;;;8.73;81.91
75036;BME280;64247;51.540;5.854;2023-03-14T11:27:52;99534.16;;;8.96;79.65
75036;BME280;64247;51.540;5.854;2023-03-14T11:33:46;99535.09;;;8.84;75.91
75036;BME280;64247;51.540;5.854;2023-03-14T11:36:11;99547.72;;;8.77;80.02
75036;BME280;64247;51.540;5.854;2023-03-14T11:38:55;99560.34;;;8.69;78.79
75036;BME280;64247;51.540;5.854;2023-03-14T11:40:59;99570.41;;;8.49;78.76